Time;durP1;ratioP1;P1;durP2;ratioP2;P2;SDS_P1;SDS_P2;PMS_P1;PMS_P2;Temp;Humidity;BMP_temperature;BMP_pressure;BME280_temperature;BME280_humidity;BME280_pressure;Samples;Min_cycle;Max_cycle;Signal;HPM_P1;HPM_P2
2022/11/19 00:00:54;;;;;;;;;;;;;;;;;;5095641;28;20279;-67
2022/11/19 00:03:20;;;;;;;;;;;;;;;;;;5096043;28;19912;-67
2022/11/19 00:05:46;;;;;;;;;;;;;;;;;;5095981;28;19909;-67
2022/11/19 00:08:12;;;;;;;;;;;;;;;;;;5095506;28;19916;-67
2022/11/19 00:10:38;;;;;;;;;;;;;;;;;;5095683;28;20280;-67
2022/11/19 00:13:04;;;;;;;;;;;;;;;;;;5096039;28;19908;-67
2022/11/19 00:15:30;;;;;;;;;;;;;;;;;;5095400;28;19908;-67
2022/11/19 00:17:57;;;;;;;;;;;;;;;;;;5095700;28;20008;-67
2022/11/19 00:20:23;;;;;;;;;;;;;;;;;;5094429;28;19908;-67
2022/11/19 00:22:49;;;;;;;;;;;;;;;;;;5095278;28;19912;-67
2022/11/19 00:25:14;;;;;;;;;;;;;;;;;;5095822;28;20356;-67
2022/11/19 00:27:40;;;;;;;;;;;;;;;;;;5095532;28;20259;-67
2022/11/19 00:30:06;;;;;;;;;;;;;;;;;;5095022;28;19916;-67
2022/11/19 00:32:32;;;;;;;;;;;;;;;;;;5093135;28;20322;-67
2022/11/19 00:34:58;;;;;;;;;;;;;;;;;;5094141;28;19961;-67
2022/11/19 00:37:24;;;;;;;;;;;;;;;;;;5094842;28;19999;-67
2022/11/19 00:39:52;;;;;;;;;;;;;;;;;;5095298;28;19931;-67
2022/11/19 00:42:18;;;;;;;;;;;;;;;;;;5094852;28;19961;-67
2022/11/19 00:44:44;;;;;;;;;;;;;;;;;;5095231;28;19909;-67
2022/11/19 00:47:10;;;;;;;;;;;;;;;;;;5093817;28;19915;-67
2022/11/19 00:49:36;;;;;;;;;;;;;;;;;;5094615;28;19920;-67
2022/11/19 00:52:02;;;;;;;;;;;;;;;;;;5095421;28;20310;-67
2022/11/19 00:54:28;;;;;;;;;;;;;;;;;;5095007;28;19915;-67
2022/11/19 00:56:54;;;;;;;;;;;;;;;;;;5094594;28;19912;-67
2022/11/19 00:59:19;;;;;;;;;;;;;;;;;;5093573;28;20421;-67
2022/11/19 01:01:45;;;;;;;;;;;;;;;;;;5095036;28;19908;-67
2022/11/19 01:04:11;;;;;;;;;;;;;;;;;;5093126;28;19908;-67
2022/11/19 01:06:37;;;;;;;;;;;;;;;;;;5093480;28;20379;-67
2022/11/19 01:09:03;;;;;;;;;;;;;;;;;;5094542;28;19927;-67
2022/11/19 01:11:29;;;;;;;;;;;;;;;;;;5094371;28;20321;-67
2022/11/19 01:13:55;;;;;;;;;;;;;;;;;;5094735;28;19908;-67
2022/11/19 01:16:21;;;;;;;;;;;;;;;;;;5094646;28;19931;-67
2022/11/19 01:18:47;;;;;;;;;;;;;;;;;;5094263;28;19908;-67
2022/11/19 01:21:13;;;;;;;;;;;;;;;;;;5094488;28;19915;-67
2022/11/19 01:23:39;;;;;;;;;;;;;;;;;;5094557;28;19908;-67
2022/11/19 01:26:05;;;;;;;;;;;;;;;;;;5094251;28;19908;-67
2022/11/19 01:28:31;;;;;;;;;;;;;;;;;;5094634;28;19915;-68
2022/11/19 01:30:57;;;;;;;;;;;;;;;;;;5094477;28;19908;-67
2022/11/19 01:33:23;;;;;;;;;;;;;;;;;;5092836;28;19908;-67
2022/11/19 01:35:49;;;;;;;;;;;;;;;;;;5094373;28;20372;-67
2022/11/19 01:38:15;;;;;;;;;;;;;;;;;;5094326;28;19912;-67
2022/11/19 01:40:41;;;;;;;;;;;;;;;;;;5092640;28;19955;-67
2022/11/19 01:43:07;;;;;;;;;;;;;;;;;;5094182;28;19955;-67
2022/11/19 01:45:33;;;;;;;;;;;;;;;;;;5093727;28;20280;-67
2022/11/19 01:47:59;;;;;;;;;;;;;;;;;;5093013;28;19908;-67
2022/11/19 01:50:25;;;;;;;;;;;;;;;;;;5094080;28;19916;-67
2022/11/19 01:52:51;;;;;;;;;;;;;;;;;;5093759;28;19918;-67
2022/11/19 01:55:17;;;;;;;;;;;;;;;;;;5094316;28;19908;-67
2022/11/19 01:57:43;;;;;;;;;;;;;;;;;;5092849;28;19915;-67
2022/11/19 02:00:09;;;;;;;;;;;;;;;;;;5093637;28;20315;-67
2022/11/19 02:02:35;;;;;;;;;;;;;;;;;;5094026;28;19908;-67
2022/11/19 02:05:01;;;;;;;;;;;;;;;;;;5094018;28;19908;-67
2022/11/19 02:07:28;;;;;;;;;;;;;;;;;;5093590;28;19908;-67
2022/11/19 02:09:54;;;;;;;;;;;;;;;;;;5093669;28;20336;-67
2022/11/19 02:12:20;;;;;;;;;;;;;;;;;;5093865;28;19908;-67
2022/11/19 02:14:46;;;;;;;;;;;;;;;;;;5092292;28;20002;-67
2022/11/19 02:17:12;;;;;;;;;;;;;;;;;;5092611;28;20315;-67
2022/11/19 02:19:37;;;;;;;;;;;;;;;;;;5093872;28;19909;-67
2022/11/19 02:22:03;;;;;;;;;;;;;;;;;;5093484;28;19915;-67
2022/11/19 02:24:29;;;;;;;;;;;;;;;;;;5092534;28;20360;-67
2022/11/19 02:26:55;;;;;;;;;;;;;;;;;;5093833;28;20272;-67
2022/11/19 02:29:21;;;;;;;;;;;;;;;;;;5093287;28;19926;-67
2022/11/19 02:31:47;;;;;;;;;;;;;;;;;;5093905;28;19908;-67
2022/11/19 02:34:13;;;;;;;;;;;;;;;;;;5093754;28;19908;-67
2022/11/19 02:36:39;;;;;;;;;;;;;;;;;;5093314;28;19908;-67
2022/11/19 02:39:05;;;;;;;;;;;;;;;;;;5094306;28;19954;-67
2022/11/19 02:41:34;;;;;;;;;;;;;;;;;;5093626;28;20379;-67
2022/11/19 02:46:44;;;;;;;;;;;;;;;;;;5093727;28;19915;-67
2022/11/19 02:49:11;;;;;;;;;;;;;;;;;;5093121;28;19912;-67
2022/11/19 02:51:37;;;;;;;;;;;;;;;;;;5093573;28;19908;-67
2022/11/19 02:54:03;;;;;;;;;;;;;;;;;;5093564;28;19949;-67
2022/11/19 02:56:29;;;;;;;;;;;;;;;;;;5095163;28;19912;-67
2022/11/19 03:04:30;;;;;;;;;;;;;;;;;;5096947;28;19962;-67
2022/11/19 03:06:56;;;;;;;;;;;;;;;;;;5097488;28;19908;-67
2022/11/19 03:09:22;;;;;;;;;;;;;;;;;;5096945;28;19974;-67
2022/11/19 03:11:48;;;;;;;;;;;;;;;;;;5096720;28;19918;-67
2022/11/19 03:16:59;;;;;;;;;;;;;;;;;;5096651;28;19919;-67
2022/11/19 03:19:25;;;;;;;;;;;;;;;;;;5097017;28;19908;-67
2022/11/19 03:21:51;;;;;;;;;;;;;;;;;;5096911;28;19912;-67
2022/11/19 03:24:17;;;;;;;;;;;;;;;;;;5095225;28;19920;-67
2022/11/19 03:26:42;;;;;;;;;;;;;;;;;;5096876;28;20398;-67
2022/11/19 03:29:08;;;;;;;;;;;;;;;;;;5096772;28;20287;-67
2022/11/19 03:31:34;;;;;;;;;;;;;;;;;;5096369;28;19908;-67
2022/11/19 03:34:00;;;;;;;;;;;;;;;;;;5096659;28;19909;-67
2022/11/19 03:36:26;;;;;;;;;;;;;;;;;;5095475;28;19915;-67
2022/11/19 03:38:52;;;;;;;;;;;;;;;;;;5096288;28;19908;-67
2022/11/19 03:41:18;;;;;;;;;;;;;;;;;;5096711;28;19912;-67
2022/11/19 03:43:44;;;;;;;;;;;;;;;;;;5095249;28;20280;-67
2022/11/19 03:46:10;;;;;;;;;;;;;;;;;;5096113;28;20283;-67
2022/11/19 03:48:36;;;;;;;;;;;;;;;;;;5095094;28;19994;-67
2022/11/19 03:51:02;;;;;;;;;;;;;;;;;;5096427;28;19915;-67
2022/11/19 03:53:28;;;;;;;;;;;;;;;;;;5096072;28;19976;-67
2022/11/19 03:55:54;;;;;;;;;;;;;;;;;;5096472;28;19908;-67
2022/11/19 03:58:20;;;;;;;;;;;;;;;;;;5096298;28;19908;-67
2022/11/19 04:00:46;;;;;;;;;;;;;;;;;;5095840;28;19931;-67
2022/11/19 04:03:12;;;;;;;;;;;;;;;;;;5096219;28;19908;-67
2022/11/19 04:05:37;;;;;;;;;;;;;;;;;;5096078;28;19915;-67
2022/11/19 04:08:03;;;;;;;;;;;;;;;;;;5095561;28;19908;-67
2022/11/19 04:10:29;;;;;;;;;;;;;;;;;;5095798;28;20020;-67
2022/11/19 04:12:55;;;;;;;;;;;;;;;;;;5095935;28;20275;-67
2022/11/19 04:15:21;;;;;;;;;;;;;;;;;;5095526;28;19969;-67
2022/11/19 04:17:47;;;;;;;;;;;;;;;;;;5095828;28;19908;-67
2022/11/19 04:20:13;;;;;;;;;;;;;;;;;;5094188;28;19946;-67
2022/11/19 04:22:39;;;;;;;;;;;;;;;;;;5094572;28;19953;-67
2022/11/19 04:25:05;;;;;;;;;;;;;;;;;;5095736;28;19908;-67
2022/11/19 04:27:31;;;;;;;;;;;;;;;;;;5095274;28;19994;-67
2022/11/19 04:29:57;;;;;;;;;;;;;;;;;;5095550;28;19916;-67
2022/11/19 04:32:23;;;;;;;;;;;;;;;;;;5095785;28;19908;-67
2022/11/19 04:34:49;;;;;;;;;;;;;;;;;;5095170;28;19919;-67
2022/11/19 04:37:15;;;;;;;;;;;;;;;;;;5095808;28;20376;-67
2022/11/19 04:39:41;;;;;;;;;;;;;;;;;;5095532;28;20381;-67
2022/11/19 04:42:07;;;;;;;;;;;;;;;;;;5095011;28;19931;-67
2022/11/19 04:44:33;;;;;;;;;;;;;;;;;;5095341;28;19999;-67
2022/11/19 04:46:59;;;;;;;;;;;;;;;;;;5095448;28;20394;-67
2022/11/19 04:49:25;;;;;;;;;;;;;;;;;;5093476;28;19912;-67
2022/11/19 04:51:51;;;;;;;;;;;;;;;;;;5093922;28;20000;-67
2022/11/19 04:54:16;;;;;;;;;;;;;;;;;;5095434;28;19915;-67
2022/11/19 04:56:42;;;;;;;;;;;;;;;;;;5094751;28;20338;-67
2022/11/19 04:59:08;;;;;;;;;;;;;;;;;;5093766;28;19912;-67
2022/11/19 05:01:34;;;;;;;;;;;;;;;;;;5095067;28;19908;-67
2022/11/19 05:04:00;;;;;;;;;;;;;;;;;;5094590;28;19961;-67
2022/11/19 05:06:26;;;;;;;;;;;;;;;;;;5094926;28;20329;-67
2022/11/19 05:08:52;;;;;;;;;;;;;;;;;;5094660;28;19912;-67
2022/11/19 05:11:18;;;;;;;;;;;;;;;;;;5094631;28;19950;-67
2022/11/19 05:13:44;;;;;;;;;;;;;;;;;;5094839;28;19908;-67
2022/11/19 05:16:10;;;;;;;;;;;;;;;;;;5095032;28;19927;-67
2022/11/19 05:18:36;;;;;;;;;;;;;;;;;;5093835;28;19914;-67
2022/11/19 05:21:02;;;;;;;;;;;;;;;;;;5094638;28;19969;-67
2022/11/19 05:23:28;;;;;;;;;;;;;;;;;;5094623;28;19912;-67
2022/11/19 05:25:54;;;;;;;;;;;;;;;;;;5094915;28;19915;-67
2022/11/19 05:28:20;;;;;;;;;;;;;;;;;;5094727;28;20277;-67
2022/11/19 05:30:46;;;;;;;;;;;;;;;;;;5094486;28;19962;-67
2022/11/19 05:33:12;;;;;;;;;;;;;;;;;;5094327;28;20354;-67
2022/11/19 05:35:38;;;;;;;;;;;;;;;;;;5094363;28;19908;-67
2022/11/19 05:38:04;;;;;;;;;;;;;;;;;;5094257;28;19908;-67
2022/11/19 05:40:30;;;;;;;;;;;;;;;;;;5094527;28;19908;-67
2022/11/19 05:42:56;;;;;;;;;;;;;;;;;;5094248;28;19908;-67
2022/11/19 05:45:22;;;;;;;;;;;;;;;;;;5093864;28;19908;-67
2022/11/19 05:47:48;;;;;;;;;;;;;;;;;;5094217;28;20084;-67
2022/11/19 05:50:14;;;;;;;;;;;;;;;;;;5094022;28;20291;-67
2022/11/19 05:52:40;;;;;;;;;;;;;;;;;;5092528;28;19908;-67
2022/11/19 05:55:06;;;;;;;;;;;;;;;;;;5094391;28;19908;-67
2022/11/19 05:57:32;;;;;;;;;;;;;;;;;;5094174;28;19991;-67
2022/11/19 05:59:58;;;;;;;;;;;;;;;;;;5093744;28;20414;-67
2022/11/19 06:02:23;;;;;;;;;;;;;;;;;;5094251;28;19912;-67
2022/11/19 06:04:49;;;;;;;;;;;;;;;;;;5094070;28;19995;-67
2022/11/19 06:07:15;;;;;;;;;;;;;;;;;;5093581;28;19908;-67
2022/11/19 06:09:41;;;;;;;;;;;;;;;;;;5092414;28;19973;-67
2022/11/19 06:12:07;;;;;;;;;;;;;;;;;;5093914;28;20403;-67
2022/11/19 06:14:33;;;;;;;;;;;;;;;;;;5093585;28;19908;-68
2022/11/19 06:16:59;;;;;;;;;;;;;;;;;;5092607;28;20042;-67
2022/11/19 06:19:25;;;;;;;;;;;;;;;;;;5093836;28;20006;-67
2022/11/19 06:21:51;;;;;;;;;;;;;;;;;;5093526;28;19908;-68
2022/11/19 06:24:17;;;;;;;;;;;;;;;;;;5092528;28;20245;-67
2022/11/19 06:26:43;;;;;;;;;;;;;;;;;;5092561;28;19916;-68
2022/11/19 06:29:09;;;;;;;;;;;;;;;;;;5093502;28;19912;-68
2022/11/19 06:31:35;;;;;;;;;;;;;;;;;;5096002;28;20314;-68
2022/11/19 06:34:01;;;;;;;;;;;;;;;;;;5097488;28;19908;-68
2022/11/19 06:36:27;;;;;;;;;;;;;;;;;;5097823;28;20031;-68
2022/11/19 06:38:53;;;;;;;;;;;;;;;;;;5097717;28;19908;-68
2022/11/19 06:41:19;;;;;;;;;;;;;;;;;;5097319;28;19918;-68
2022/11/19 06:43:45;;;;;;;;;;;;;;;;;;5097803;28;19912;-67
2022/11/19 06:46:11;;;;;;;;;;;;;;;;;;5096237;28;19915;-67
2022/11/19 06:48:37;;;;;;;;;;;;;;;;;;5097118;28;19915;-67
2022/11/19 06:51:03;;;;;;;;;;;;;;;;;;5097549;28;19948;-67
2022/11/19 06:53:29;;;;;;;;;;;;;;;;;;5097533;28;19912;-67
2022/11/19 06:55:54;;;;;;;;;;;;;;;;;;5097076;28;20276;-67
2022/11/19 06:58:20;;;;;;;;;;;;;;;;;;5097390;28;19908;-67
2022/11/19 07:00:46;;;;;;;;;;;;;;;;;;5097404;28;19958;-67
2022/11/19 07:03:12;;;;;;;;;;;;;;;;;;5096960;28;19915;-67
2022/11/19 07:05:38;;;;;;;;;;;;;;;;;;5097271;28;20295;-67
2022/11/19 07:08:04;;;;;;;;;;;;;;;;;;5097228;28;19908;-67
2022/11/19 07:10:32;;;;;;;;;;;;;;;;;;5096543;28;19924;-68
2022/11/19 07:13:56;;;;;;;;;;;;;;;;;;5092201;28;19923;-66
2022/11/19 07:16:11;;;;;;;;;;;;;;;;;;5090841;28;19912;-66
2022/11/19 07:18:37;;;;;;;;;;;;;;;;;;5091341;28;19915;-66
2022/11/19 07:21:03;;;;;;;;;;;;;;;;;;5091252;28;19916;-66
2022/11/19 07:23:29;;;;;;;;;;;;;;;;;;5090851;28;19909;-66
2022/11/19 07:25:55;;;;;;;;;;;;;;;;;;5091212;28;19917;-66
2022/11/19 07:28:20;;;;;;;;;;;;;;;;;;5089951;28;19909;-66
2022/11/19 07:30:46;;;;;;;;;;;;;;;;;;5091161;28;20007;-66
2022/11/19 07:33:12;;;;;;;;;;;;;;;;;;5090985;28;20372;-67
2022/11/19 07:35:38;;;;;;;;;;;;;;;;;;5089815;28;20299;-67
2022/11/19 07:38:04;;;;;;;;;;;;;;;;;;5090663;28;19913;-67
2022/11/19 07:40:32;;;;;;;;;;;;;;;;;;5091054;28;19908;-67
2022/11/19 07:42:57;;;;;;;;;;;;;;;;;;5090925;28;19908;-68
2022/11/19 07:45:23;;;;;;;;;;;;;;;;;;5090476;28;19915;-67
2022/11/19 07:47:50;;;;;;;;;;;;;;;;;;5090905;28;19915;-67
2022/11/19 07:50:16;;;;;;;;;;;;;;;;;;5090772;28;19908;-68
2022/11/19 07:52:42;;;;;;;;;;;;;;;;;;5090203;28;20206;-68
2022/11/19 07:55:07;;;;;;;;;;;;;;;;;;5090686;28;19919;-68
2022/11/19 07:59:21;;;;;;;;;;;;;;;;;;5091325;27;19912;-66
2022/11/19 08:01:47;;;;;;;;;;;;;;;;;;5091879;28;20459;-66
2022/11/19 08:04:13;;;;;;;;;;;;;;;;;;5090093;28;19908;-66
2022/11/19 08:11:07;;;;;;;;;;;;;;;;;;5174099;27;20006;-66
2022/11/19 08:13:33;;;;;;;;;;;;;;;;;;5173252;27;19950;-66
2022/11/19 08:15:58;;;;;;;;;;;;;;;;;;5173683;27;19907;-66
2022/11/19 08:18:24;;;;;;;;;;;;;;;;;;5154915;27;19964;-66
2022/11/19 08:20:50;;;;;;;;;;;;;;;;;;5154541;27;19946;-66
2022/11/19 08:24:08;;;;;;;;;;;;;;;;;;5091596;27;19916;-66
2022/11/19 08:26:34;;;;;;;;;;;;;;;;;;5090965;28;20372;-66
2022/11/19 08:29:00;;;;;;;;;;;;;;;;;;5090046;28;20006;-66
2022/11/19 08:32:48;;;;;;;;;;;;;;;;;;5111874;27;20291;-66
2022/11/19 08:35:14;;;;;;;;;;;;;;;;;;5111590;28;19918;-67
2022/11/19 08:38:00;;;;;;;;;;;;;;;;;;5092187;27;20403;-67
2022/11/19 08:44:37;;;;;;;;;;;;;;;;;;5091895;27;20299;-67
2022/11/19 08:47:23;;;;;;;;;;;;;;;;;;5091970;27;20303;-66
2022/11/19 08:49:49;;;;;;;;;;;;;;;;;;5090934;28;20003;-66
2022/11/19 08:52:15;;;;;;;;;;;;;;;;;;5091399;28;19995;-67
2022/11/19 08:54:41;;;;;;;;;;;;;;;;;;5091057;28;19908;-67
2022/11/19 09:05:09;;;;;;;;;;;;;;;;;;5091778;28;20303;-67
2022/11/19 09:07:35;;;;;;;;;;;;;;;;;;5090222;28;20006;-67
2022/11/19 09:10:01;;;;;;;;;;;;;;;;;;5091051;28;19995;-67
2022/11/19 09:12:27;;;;;;;;;;;;;;;;;;5091313;28;19912;-67
2022/11/19 09:14:53;;;;;;;;;;;;;;;;;;5091292;28;19915;-67
2022/11/19 09:17:19;;;;;;;;;;;;;;;;;;5091130;28;19913;-67
2022/11/19 09:19:45;;;;;;;;;;;;;;;;;;5091153;28;19908;-68
2022/11/19 09:22:11;;;;;;;;;;;;;;;;;;5091159;28;19939;-67
2022/11/19 09:24:37;;;;;;;;;;;;;;;;;;5090632;28;19923;-68
2022/11/19 09:27:02;;;;;;;;;;;;;;;;;;5091000;28;19909;-68
2022/11/19 09:29:28;;;;;;;;;;;;;;;;;;5089666;28;19912;-68
2022/11/19 09:31:54;;;;;;;;;;;;;;;;;;5090592;28;19916;-68
2022/11/19 09:34:20;;;;;;;;;;;;;;;;;;5090867;28;19989;-68
2022/11/19 09:36:46;;;;;;;;;;;;;;;;;;5089162;28;19908;-68
2022/11/19 09:39:12;;;;;;;;;;;;;;;;;;5089525;28;20376;-67
2022/11/19 09:41:38;;;;;;;;;;;;;;;;;;5090673;28;20343;-67
2022/11/19 09:44:04;;;;;;;;;;;;;;;;;;5088954;28;19920;-67
2022/11/19 09:46:30;;;;;;;;;;;;;;;;;;5090712;28;19909;-68
2022/11/19 09:48:56;;;;;;;;;;;;;;;;;;5090657;28;19912;-67
2022/11/19 09:51:22;;;;;;;;;;;;;;;;;;5090313;28;19908;-67
2022/11/19 09:53:48;;;;;;;;;;;;;;;;;;5090873;28;19908;-68
2022/11/19 09:56:14;;;;;;;;;;;;;;;;;;5090460;28;19909;-69
2022/11/19 09:58:40;;;;;;;;;;;;;;;;;;5089938;28;19961;-68
2022/11/19 10:01:06;;;;;;;;;;;;;;;;;;5090809;28;19936;-68
2022/11/19 10:03:32;;;;;;;;;;;;;;;;;;5097348;28;19982;-68
2022/11/19 10:05:58;;;;;;;;;;;;;;;;;;5092098;28;19915;-67
2022/11/19 10:10:45;;;;;;;;;;;;;;;;;;5092365;27;19917;-66
2022/11/19 10:13:11;;;;;;;;;;;;;;;;;;5091327;28;20015;-66
2022/11/19 10:15:37;;;;;;;;;;;;;;;;;;5090255;28;19916;-66
2022/11/19 10:18:58;;;;;;;;;;;;;;;;;;5091283;27;20380;-67
2022/11/19 10:21:24;;;;;;;;;;;;;;;;;;5091270;28;20007;-67
2022/11/19 10:23:51;;;;;;;;;;;;;;;;;;5091177;28;19909;-67
2022/11/19 10:26:17;;;;;;;;;;;;;;;;;;5090885;28;19954;-67
2022/11/19 10:32:36;;;;;;;;;;;;;;;;;;5112028;27;19912;-67
2022/11/19 10:35:02;;;;;;;;;;;;;;;;;;5111143;28;20006;-67
2022/11/19 10:37:29;;;;;;;;;;;;;;;;;;5111506;28;19909;-66
2022/11/19 10:39:55;;;;;;;;;;;;;;;;;;5111546;28;19912;-67
2022/11/19 10:43:47;;;;;;;;;;;;;;;;;;5091955;28;19917;-66
2022/11/19 10:50:41;;;;;;;;;;;;;;;;;;5112111;27;20272;-66
2022/11/19 10:53:07;;;;;;;;;;;;;;;;;;5111722;28;20379;-67
2022/11/19 10:55:33;;;;;;;;;;;;;;;;;;5111346;28;19950;-66
2022/11/19 11:01:37;;;;;;;;;;;;;;;;;;5091683;27;19916;-67
2022/11/19 11:04:03;;;;;;;;;;;;;;;;;;5091341;28;19995;-66
2022/11/19 11:06:29;;;;;;;;;;;;;;;;;;5091121;28;19908;-68
2022/11/19 11:08:55;;;;;;;;;;;;;;;;;;5090861;28;20012;-67
2022/11/19 11:15:46;;;;;;;;;;;;;;;;;;5111152;28;19958;-67
2022/11/19 11:18:13;;;;;;;;;;;;;;;;;;5111616;28;20316;-66
2022/11/19 11:21:14;;;;;;;;;;;;;;;;;;5091615;27;19917;-67
2022/11/19 11:23:40;;;;;;;;;;;;;;;;;;5090962;28;19998;-67
2022/11/19 11:26:06;;;;;;;;;;;;;;;;;;5091381;28;19916;-68
2022/11/19 11:28:32;;;;;;;;;;;;;;;;;;5091938;28;20356;-67
2022/11/19 11:30:58;;;;;;;;;;;;;;;;;;5090798;28;20315;-67
2022/11/19 11:33:24;;;;;;;;;;;;;;;;;;5091387;28;19919;-67
2022/11/19 11:35:50;;;;;;;;;;;;;;;;;;5091196;28;19908;-69
2022/11/19 11:38:16;;;;;;;;;;;;;;;;;;5090740;28;19916;-67
2022/11/19 11:40:42;;;;;;;;;;;;;;;;;;5090976;28;19920;-67
2022/11/19 11:44:00;;;;;;;;;;;;;;;;;;5091660;27;19917;-67
2022/11/19 11:46:26;;;;;;;;;;;;;;;;;;5091652;28;19952;-68
2022/11/19 11:51:09;;;;;;;;;;;;;;;;;;5111617;27;20375;-67
2022/11/19 11:53:35;;;;;;;;;;;;;;;;;;5111641;28;20007;-66
2022/11/19 11:56:01;;;;;;;;;;;;;;;;;;5111630;28;20282;-68
2022/11/19 11:58:27;;;;;;;;;;;;;;;;;;5111218;28;19931;-67
2022/11/19 12:00:54;;;;;;;;;;;;;;;;;;5110302;28;19908;-67
2022/11/19 12:03:19;;;;;;;;;;;;;;;;;;5111686;28;19912;-69
2022/11/19 12:05:45;;;;;;;;;;;;;;;;;;5111336;28;20398;-68
2022/11/19 12:08:11;;;;;;;;;;;;;;;;;;5111622;28;19908;-67
2022/11/19 12:10:37;;;;;;;;;;;;;;;;;;5111394;28;19923;-67
2022/11/19 12:13:03;;;;;;;;;;;;;;;;;;5110984;28;19908;-66
2022/11/19 12:15:29;;;;;;;;;;;;;;;;;;5111554;28;20006;-67
2022/11/19 12:17:55;;;;;;;;;;;;;;;;;;5111321;28;20363;-67
2022/11/19 12:20:22;;;;;;;;;;;;;;;;;;5110732;28;20374;-68
2022/11/19 12:22:48;;;;;;;;;;;;;;;;;;5111396;28;19908;-67
2022/11/19 12:25:14;;;;;;;;;;;;;;;;;;5109845;28;19951;-67
2022/11/19 12:27:40;;;;;;;;;;;;;;;;;;5110716;28;19950;-68
2022/11/19 12:30:06;;;;;;;;;;;;;;;;;;5111227;28;19923;-68
2022/11/19 12:32:32;;;;;;;;;;;;;;;;;;5110881;28;19908;-67
2022/11/19 12:34:58;;;;;;;;;;;;;;;;;;5111435;28;19999;-68
2022/11/19 12:38:52;;;;;;;;;;;;;;;;;;5153319;27;20438;-66
2022/11/19 12:41:18;;;;;;;;;;;;;;;;;;5152528;27;20019;-66
2022/11/19 12:43:44;;;;;;;;;;;;;;;;;;5152864;27;20367;-67
2022/11/19 12:46:11;;;;;;;;;;;;;;;;;;5152832;27;20377;-66
2022/11/19 12:48:37;;;;;;;;;;;;;;;;;;5152352;27;19913;-66
2022/11/19 12:51:03;;;;;;;;;;;;;;;;;;5152679;27;19915;-67
2022/11/19 12:53:29;;;;;;;;;;;;;;;;;;5152447;27;20393;-67
2022/11/19 12:55:55;;;;;;;;;;;;;;;;;;5151868;27;19908;-69
2022/11/19 12:58:22;;;;;;;;;;;;;;;;;;5152474;27;20041;-69
2022/11/19 13:00:48;;;;;;;;;;;;;;;;;;5152218;27;19960;-68
2022/11/19 13:03:14;;;;;;;;;;;;;;;;;;5152528;27;20009;-68
2022/11/19 13:05:40;;;;;;;;;;;;;;;;;;5152658;27;19914;-69
2022/11/19 13:08:06;;;;;;;;;;;;;;;;;;5151903;27;19921;-68
2022/11/19 13:11:13;;;;;;;;;;;;;;;;;;5092031;27;19923;-66
2022/11/19 13:13:39;;;;;;;;;;;;;;;;;;5091262;28;20006;-68
2022/11/19 13:16:05;;;;;;;;;;;;;;;;;;5090910;28;19912;-67
2022/11/19 13:18:31;;;;;;;;;;;;;;;;;;5091187;28;19961;-68
2022/11/19 13:20:57;;;;;;;;;;;;;;;;;;5091469;28;20410;-68
2022/11/19 13:23:23;;;;;;;;;;;;;;;;;;5090649;28;20360;-66
2022/11/19 13:25:49;;;;;;;;;;;;;;;;;;5091145;28;20288;-67
2022/11/19 13:29:57;;;;;;;;;;;;;;;;;;5091385;28;19922;-67
2022/11/19 13:32:22;;;;;;;;;;;;;;;;;;5091313;28;20007;-68
2022/11/19 13:34:48;;;;;;;;;;;;;;;;;;5091290;28;19908;-67
2022/11/19 13:37:14;;;;;;;;;;;;;;;;;;5089567;28;19951;-68
2022/11/19 13:39:40;;;;;;;;;;;;;;;;;;5091188;28;19908;-66
2022/11/19 13:44:51;;;;;;;;;;;;;;;;;;5090747;28;19915;-66
2022/11/19 13:47:17;;;;;;;;;;;;;;;;;;5091083;28;19912;-66
2022/11/19 13:51:44;;;;;;;;;;;;;;;;;;5090947;27;20299;-66
2022/11/19 13:56:44;;;;;;;;;;;;;;;;;;5092044;27;19916;-66
2022/11/19 13:59:10;;;;;;;;;;;;;;;;;;5090981;28;20007;-66
2022/11/19 14:01:36;;;;;;;;;;;;;;;;;;5091302;28;19908;-68
2022/11/19 14:04:02;;;;;;;;;;;;;;;;;;5090932;28;19914;-66
2022/11/19 14:06:28;;;;;;;;;;;;;;;;;;5091058;28;19908;-67
2022/11/19 14:08:54;;;;;;;;;;;;;;;;;;5091228;28;19966;-67
2022/11/19 14:11:20;;;;;;;;;;;;;;;;;;5090738;28;19967;-67
2022/11/19 14:27:12;;;;;;;;;;;;;;;;;;5070690;28;19966;-68
2022/11/19 14:29:38;;;;;;;;;;;;;;;;;;5071361;28;19912;-68
2022/11/19 14:32:05;;;;;;;;;;;;;;;;;;5071117;28;19909;-68
2022/11/19 14:34:31;;;;;;;;;;;;;;;;;;5071101;28;19909;-67
2022/11/19 14:36:57;;;;;;;;;;;;;;;;;;5086562;28;19920;-66
2022/11/19 14:39:23;;;;;;;;;;;;;;;;;;5086101;28;19909;-67
2022/11/19 14:41:49;;;;;;;;;;;;;;;;;;5070901;28;19954;-66
2022/11/19 14:46:27;;;;;;;;;;;;;;;;;;5091064;27;19916;-66
2022/11/19 14:48:53;;;;;;;;;;;;;;;;;;5091401;28;19918;-66
2022/11/19 14:51:19;;;;;;;;;;;;;;;;;;5091195;28;20383;-67
2022/11/19 14:53:45;;;;;;;;;;;;;;;;;;5090953;28;19913;-67
2022/11/19 14:56:11;;;;;;;;;;;;;;;;;;5091294;28;19915;-67
2022/11/19 15:07:33;;;;;;;;;;;;;;;;;;5111402;27;20280;-67
2022/11/19 15:09:59;;;;;;;;;;;;;;;;;;5112021;28;19919;-67
2022/11/19 15:12:25;;;;;;;;;;;;;;;;;;5111827;28;19908;-66
2022/11/19 15:16:30;;;;;;;;;;;;;;;;;;5112044;27;19918;-67
2022/11/19 15:18:56;;;;;;;;;;;;;;;;;;5110346;28;20007;-67
2022/11/19 15:21:22;;;;;;;;;;;;;;;;;;5111281;28;20283;-67
2022/11/19 15:25:54;;;;;;;;;;;;;;;;;;5112776;27;19916;-67
2022/11/19 15:28:20;;;;;;;;;;;;;;;;;;5111800;28;19934;-67
2022/11/19 15:30:46;;;;;;;;;;;;;;;;;;5111835;28;19908;-67
2022/11/19 15:33:50;;;;;;;;;;;;;;;;;;5112149;27;20368;-68
2022/11/19 15:37:44;;;;;;;;;;;;;;;;;;5091054;27;19916;-68
2022/11/19 15:40:10;;;;;;;;;;;;;;;;;;5091370;28;19955;-67
2022/11/19 15:47:02;;;;;;;;;;;;;;;;;;5072127;28;19917;-67
2022/11/19 15:49:28;;;;;;;;;;;;;;;;;;5070798;28;20016;-67
2022/11/19 15:51:54;;;;;;;;;;;;;;;;;;5071069;28;19909;-67
2022/11/19 15:54:19;;;;;;;;;;;;;;;;;;5071221;28;19915;-67
2022/11/19 15:57:50;;;;;;;;;;;;;;;;;;5091271;28;19923;-67
2022/11/19 16:01:34;;;;;;;;;;;;;;;;;;5091390;27;19916;-66
2022/11/19 16:05:34;;;;;;;;;;;;;;;;;;5111380;27;19938;-67
2022/11/19 16:08:00;;;;;;;;;;;;;;;;;;5112402;28;20372;-67
2022/11/19 16:10:26;;;;;;;;;;;;;;;;;;5111718;28;19908;-67
2022/11/19 16:17:57;;;;;;;;;;;;;;;;;;5091564;27;19917;-66
2022/11/19 16:22:04;;;;;;;;;;;;;;;;;;5091771;27;19920;-67
2022/11/19 16:27:34;;;;;;;;;;;;;;;;;;5089361;28;19913;-67
2022/11/19 16:33:23;;;;;;;;;;;;;;;;;;5091185;27;20410;-66
2022/11/19 16:35:49;;;;;;;;;;;;;;;;;;5091352;28;19956;-66
2022/11/19 16:38:15;;;;;;;;;;;;;;;;;;5091334;28;19909;-66
2022/11/19 16:42:41;;;;;;;;;;;;;;;;;;5091789;27;19922;-67
2022/11/19 16:45:08;;;;;;;;;;;;;;;;;;5091584;28;20011;-67
2022/11/19 16:47:34;;;;;;;;;;;;;;;;;;5089686;28;19909;-67
2022/11/19 16:50:00;;;;;;;;;;;;;;;;;;5089957;28;20300;-67
2022/11/19 16:52:26;;;;;;;;;;;;;;;;;;5091286;28;19931;-67
2022/11/19 16:54:52;;;;;;;;;;;;;;;;;;5089579;28;19908;-67
2022/11/19 16:57:18;;;;;;;;;;;;;;;;;;5089879;28;20384;-67
2022/11/19 16:59:44;;;;;;;;;;;;;;;;;;5091122;28;19931;-67
2022/11/19 17:02:10;;;;;;;;;;;;;;;;;;5090514;28;20391;-67
2022/11/19 17:07:34;;;;;;;;;;;;;;;;;;5111548;27;20406;-68
2022/11/19 17:09:59;;;;;;;;;;;;;;;;;;5110517;28;19995;-67
2022/11/19 17:13:42;;;;;;;;;;;;;;;;;;5091534;27;19916;-66
2022/11/19 17:16:08;;;;;;;;;;;;;;;;;;5090991;28;20030;-67
2022/11/19 17:18:34;;;;;;;;;;;;;;;;;;5091552;28;19908;-68
2022/11/19 17:21:00;;;;;;;;;;;;;;;;;;5090909;28;19915;-68
2022/11/19 17:25:51;;;;;;;;;;;;;;;;;;5091428;27;19916;-67
2022/11/19 17:28:17;;;;;;;;;;;;;;;;;;5091076;28;19938;-67
2022/11/19 17:31:04;;;;;;;;;;;;;;;;;;5153330;27;19918;-67
2022/11/19 17:33:30;;;;;;;;;;;;;;;;;;5152880;27;20014;-67
2022/11/19 17:35:56;;;;;;;;;;;;;;;;;;5152471;27;19960;-66
2022/11/19 17:38:26;;;;;;;;;;;;;;;;;;5153089;27;20010;-68
2022/11/19 17:49:57;;;;;;;;;;;;;;;;;;5111264;27;19922;-68
2022/11/19 17:52:23;;;;;;;;;;;;;;;;;;5111736;28;20006;-68
2022/11/19 17:57:12;;;;;;;;;;;;;;;;;;5091040;28;19917;-67
2022/11/19 17:59:38;;;;;;;;;;;;;;;;;;5091387;28;20008;-67
2022/11/19 18:03:04;;;;;;;;;;;;;;;;;;5112587;27;19916;-66
2022/11/19 18:05:30;;;;;;;;;;;;;;;;;;5111847;28;20014;-66
2022/11/19 18:10:37;;;;;;;;;;;;;;;;;;5111515;27;19922;-68
2022/11/19 18:13:03;;;;;;;;;;;;;;;;;;5111702;28;20002;-68
2022/11/19 18:15:29;;;;;;;;;;;;;;;;;;5110495;28;19908;-68
2022/11/19 18:17:56;;;;;;;;;;;;;;;;;;5111277;28;19995;-66
2022/11/19 18:21:15;;;;;;;;;;;;;;;;;;5091939;27;19912;-67
2022/11/19 18:27:20;;;;;;;;;;;;;;;;;;5091977;28;19916;-67
2022/11/19 18:31:00;;;;;;;;;;;;;;;;;;5112072;27;20384;-67
2022/11/19 18:39:35;;;;;;;;;;;;;;;;;;4969085;28;19918;-67
2022/11/19 18:42:00;;;;;;;;;;;;;;;;;;4969204;28;20298;-67
2022/11/19 18:44:33;;;;;;;;;;;;;;;;;;4969159;28;19917;-67
2022/11/19 18:48:41;;;;;;;;;;;;;;;;;;5092112;27;19917;-66
2022/11/19 18:51:07;;;;;;;;;;;;;;;;;;5090145;28;19944;-67
2022/11/19 18:53:33;;;;;;;;;;;;;;;;;;5091227;28;20368;-67
2022/11/19 18:55:59;;;;;;;;;;;;;;;;;;5091272;28;19908;-67
2022/11/19 18:58:25;;;;;;;;;;;;;;;;;;5091219;28;19944;-67
2022/11/19 19:00:51;;;;;;;;;;;;;;;;;;5090748;28;19912;-67
2022/11/19 19:03:17;;;;;;;;;;;;;;;;;;5091138;28;19948;-67
2022/11/19 19:05:43;;;;;;;;;;;;;;;;;;5091106;28;19915;-67
2022/11/19 19:08:32;;;;;;;;;;;;;;;;;;5111468;27;19916;-67
2022/11/19 19:12:24;;;;;;;;;;;;;;;;;;5071634;28;19921;-67
2022/11/19 19:15:14;;;;;;;;;;;;;;;;;;5111564;27;19916;-67
2022/11/19 19:17:40;;;;;;;;;;;;;;;;;;5111742;28;19998;-67